sensor_id;sensor_type;location;lat;lon;timestamp;pressure;altitude;pressure_sealevel;temperature;humidity
17635;BME280;8936;49.010;12.120;2022-07-18T00:01:09;98662.19;;;26.51;38.19
17635;BME280;8936;49.010;12.120;2022-07-18T00:03:35;98666.75;;;26.47;38.34
17635;BME280;8936;49.010;12.120;2022-07-18T00:06:02;98658.00;;;24.93;40.14
17635;BME280;8936;49.010;12.120;2022-07-18T00:08:28;98661.41;;;25.02;40.06
17635;BME280;8936;49.010;12.120;2022-07-18T00:10:56;98662.78;;;25.08;39.60
17635;BME280;8936;49.010;12.120;2022-07-18T00:13:22;98674.94;;;24.86;39.78
17635;BME280;8936;49.010;12.120;2022-07-18T00:15:49;98672.66;;;24.88;39.88
17635;BME280;8936;49.010;12.120;2022-07-18T00:18:15;98658.25;;;25.36;39.30
17635;BME280;8936;49.010;12.120;2022-07-18T00:20:41;98660.06;;;25.32;39.08
17635;BME280;8936;49.010;12.120;2022-07-18T00:23:08;98663.72;;;25.48;38.90
17635;BME280;8936;49.010;12.120;2022-07-18T00:25:34;98664.44;;;25.69;38.70
17635;BME280;8936;49.010;12.120;2022-07-18T00:28:02;98653.75;;;25.52;38.74
17635;BME280;8936;49.010;12.120;2022-07-18T00:30:28;98661.81;;;25.61;38.92
17635;BME280;8936;49.010;12.120;2022-07-18T00:32:55;98665.47;;;25.53;39.02
17635;BME280;8936;49.010;12.120;2022-07-18T00:35:21;98661.78;;;25.85;38.58
17635;BME280;8936;49.010;12.120;2022-07-18T00:37:47;98659.81;;;25.98;38.53
17635;BME280;8936;49.010;12.120;2022-07-18T00:40:14;98661.66;;;25.94;38.58
17635;BME280;8936;49.010;12.120;2022-07-18T00:42:40;98660.66;;;25.86;38.67
17635;BME280;8936;49.010;12.120;2022-07-18T00:45:09;98675.63;;;25.52;39.50
17635;BME280;8936;49.010;12.120;2022-07-18T00:47:35;98675.16;;;25.74;39.26
17635;BME280;8936;49.010;12.120;2022-07-18T00:50:02;98661.22;;;25.80;39.46
17635;BME280;8936;49.010;12.120;2022-07-18T00:52:30;98666.28;;;25.65;39.58
17635;BME280;8936;49.010;12.120;2022-07-18T00:54:57;98666.97;;;25.62;39.75
17635;BME280;8936;49.010;12.120;2022-07-18T00:57:23;98669.78;;;25.66;40.03
17635;BME280;8936;49.010;12.120;2022-07-18T00:59:50;98660.44;;;25.55;40.34
17635;BME280;8936;49.010;12.120;2022-07-18T01:02:35;98661.59;;;25.54;40.50
17635;BME280;8936;49.010;12.120;2022-07-18T01:05:02;98664.69;;;25.52;40.51
17635;BME280;8936;49.010;12.120;2022-07-18T01:07:29;98653.84;;;25.44;40.68
17635;BME280;8936;49.010;12.120;2022-07-18T01:09:55;98669.22;;;25.72;40.25
17635;BME280;8936;49.010;12.120;2022-07-18T01:12:21;98661.66;;;25.82;40.31
17635;BME280;8936;49.010;12.120;2022-07-18T01:14:48;98664.19;;;25.87;40.22
17635;BME280;8936;49.010;12.120;2022-07-18T01:17:15;98658.81;;;25.90;40.06
17635;BME280;8936;49.010;12.120;2022-07-18T01:19:43;98658.91;;;25.94;40.19
17635;BME280;8936;49.010;12.120;2022-07-18T01:22:13;98658.72;;;25.87;40.00
17635;BME280;8936;49.010;12.120;2022-07-18T01:24:40;98656.88;;;25.91;39.96
17635;BME280;8936;49.010;12.120;2022-07-18T01:27:07;98652.56;;;25.90;39.89
17635;BME280;8936;49.010;12.120;2022-07-18T01:29:33;98654.94;;;25.91;39.77
17635;BME280;8936;49.010;12.120;2022-07-18T01:32:03;98656.78;;;25.87;39.87
17635;BME280;8936;49.010;12.120;2022-07-18T01:34:29;98661.78;;;25.85;39.85
17635;BME280;8936;49.010;12.120;2022-07-18T01:36:56;98660.97;;;25.85;39.77
17635;BME280;8936;49.010;12.120;2022-07-18T01:39:23;98662.16;;;25.84;39.97
17635;BME280;8936;49.010;12.120;2022-07-18T01:41:54;98658.94;;;25.69;39.79
17635;BME280;8936;49.010;12.120;2022-07-18T01:44:20;98664.41;;;25.45;40.32
17635;BME280;8936;49.010;12.120;2022-07-18T01:46:46;98657.16;;;25.49;40.29
17635;BME280;8936;49.010;12.120;2022-07-18T01:49:13;98655.22;;;25.50;40.02
17635;BME280;8936;49.010;12.120;2022-07-18T01:51:39;98664.69;;;25.52;39.87
17635;BME280;8936;49.010;12.120;2022-07-18T01:54:05;98658.84;;;25.66;39.68
17635;BME280;8936;49.010;12.120;2022-07-18T01:56:33;98651.00;;;25.64;39.60
17635;BME280;8936;49.010;12.120;2022-07-18T01:59:01;98659.53;;;25.63;39.55
17635;BME280;8936;49.010;12.120;2022-07-18T02:01:27;98665.47;;;25.65;39.39
17635;BME280;8936;49.010;12.120;2022-07-18T02:03:53;98662.63;;;25.61;39.41
17635;BME280;8936;49.010;12.120;2022-07-18T02:06:20;98661.50;;;25.62;39.45
17635;BME280;8936;49.010;12.120;2022-07-18T02:08:46;98661.00;;;25.48;39.43
17635;BME280;8936;49.010;12.120;2022-07-18T02:11:12;98666.34;;;25.33;39.64
17635;BME280;8936;49.010;12.120;2022-07-18T02:13:40;98655.66;;;25.40;39.55
17635;BME280;8936;49.010;12.120;2022-07-18T02:16:06;98665.66;;;25.23;39.87
17635;BME280;8936;49.010;12.120;2022-07-18T02:18:33;98670.41;;;24.90;39.96
17635;BME280;8936;49.010;12.120;2022-07-18T02:20:59;98662.69;;;24.71;40.02
17635;BME280;8936;49.010;12.120;2022-07-18T02:23:25;98666.19;;;24.39;40.79
17635;BME280;8936;49.010;12.120;2022-07-18T02:25:52;98672.78;;;23.97;41.50
17635;BME280;8936;49.010;12.120;2022-07-18T02:28:18;98668.94;;;24.39;40.83
17635;BME280;8936;49.010;12.120;2022-07-18T02:30:46;98674.03;;;24.61;40.81
17635;BME280;8936;49.010;12.120;2022-07-18T02:33:13;98682.38;;;24.77;40.64
17635;BME280;8936;49.010;12.120;2022-07-18T02:35:39;98683.66;;;24.80;40.79
17635;BME280;8936;49.010;12.120;2022-07-18T02:38:06;98683.06;;;24.74;41.16
17635;BME280;8936;49.010;12.120;2022-07-18T02:40:32;98679.25;;;24.34;41.73
17635;BME280;8936;49.010;12.120;2022-07-18T02:42:59;98676.44;;;24.42;41.84
17635;BME280;8936;49.010;12.120;2022-07-18T02:45:25;98682.50;;;24.06;42.48
17635;BME280;8936;49.010;12.120;2022-07-18T02:47:53;98678.31;;;24.09;42.29
17635;BME280;8936;49.010;12.120;2022-07-18T02:50:19;98688.22;;;23.26;42.97
17635;BME280;8936;49.010;12.120;2022-07-18T02:52:46;98686.22;;;22.97;43.84
17635;BME280;8936;49.010;12.120;2022-07-18T02:55:12;98689.34;;;23.92;42.71
17635;BME280;8936;49.010;12.120;2022-07-18T02:57:39;98683.75;;;24.09;42.09
17635;BME280;8936;49.010;12.120;2022-07-18T03:00:07;98687.38;;;24.42;41.60
17635;BME280;8936;49.010;12.120;2022-07-18T03:02:34;98681.00;;;24.71;41.32
17635;BME280;8936;49.010;12.120;2022-07-18T03:05:02;98676.00;;;24.40;41.36
17635;BME280;8936;49.010;12.120;2022-07-18T03:07:29;98677.44;;;24.58;41.10
17635;BME280;8936;49.010;12.120;2022-07-18T03:09:55;98680.19;;;24.70;41.02
17635;BME280;8936;49.010;12.120;2022-07-18T03:12:22;98683.34;;;24.60;40.89
17635;BME280;8936;49.010;12.120;2022-07-18T03:14:48;98685.50;;;24.55;40.95
17635;BME280;8936;49.010;12.120;2022-07-18T03:17:15;98687.16;;;24.68;40.73
17635;BME280;8936;49.010;12.120;2022-07-18T03:19:41;98681.94;;;24.75;40.69
17635;BME280;8936;49.010;12.120;2022-07-18T03:22:09;98685.56;;;24.79;40.30
17635;BME280;8936;49.010;12.120;2022-07-18T03:24:35;98692.00;;;24.83;40.20
17635;BME280;8936;49.010;12.120;2022-07-18T03:27:02;98692.34;;;24.82;40.24
17635;BME280;8936;49.010;12.120;2022-07-18T03:29:28;98698.28;;;24.84;40.23
17635;BME280;8936;49.010;12.120;2022-07-18T03:31:55;98694.44;;;24.76;40.04
17635;BME280;8936;49.010;12.120;2022-07-18T03:34:21;98692.66;;;24.80;40.07
17635;BME280;8936;49.010;12.120;2022-07-18T03:36:47;98695.09;;;24.40;40.46
17635;BME280;8936;49.010;12.120;2022-07-18T03:39:15;98697.97;;;24.44;40.62
17635;BME280;8936;49.010;12.120;2022-07-18T03:41:41;98701.13;;;24.13;40.79
17635;BME280;8936;49.010;12.120;2022-07-18T03:44:08;98697.72;;;24.16;40.86
17635;BME280;8936;49.010;12.120;2022-07-18T03:46:34;98696.38;;;23.72;41.68
17635;BME280;8936;49.010;12.120;2022-07-18T03:49:01;98692.97;;;23.46;41.88
17635;BME280;8936;49.010;12.120;2022-07-18T03:51:27;98707.44;;;23.76;41.69
17635;BME280;8936;49.010;12.120;2022-07-18T03:53:54;98699.97;;;23.64;41.93
17635;BME280;8936;49.010;12.120;2022-07-18T03:56:21;98703.94;;;23.29;42.19
17635;BME280;8936;49.010;12.120;2022-07-18T03:58:48;98717.13;;;23.09;42.49
17635;BME280;8936;49.010;12.120;2022-07-18T04:01:14;98712.97;;;23.03;42.53
17635;BME280;8936;49.010;12.120;2022-07-18T04:03:40;98709.13;;;23.04;42.54
17635;BME280;8936;49.010;12.120;2022-07-18T04:06:07;98709.84;;;23.39;42.50
17635;BME280;8936;49.010;12.120;2022-07-18T04:08:33;98706.84;;;23.15;42.46
17635;BME280;8936;49.010;12.120;2022-07-18T04:10:59;98706.31;;;23.68;41.92
17635;BME280;8936;49.010;12.120;2022-07-18T04:13:27;98699.09;;;24.01;41.52
17635;BME280;8936;49.010;12.120;2022-07-18T04:15:53;98709.09;;;24.18;41.20
17635;BME280;8936;49.010;12.120;2022-07-18T04:18:20;98704.56;;;24.22;41.17
17635;BME280;8936;49.010;12.120;2022-07-18T04:20:46;98701.84;;;24.22;41.13
17635;BME280;8936;49.010;12.120;2022-07-18T04:23:12;98702.41;;;24.07;41.30
17635;BME280;8936;49.010;12.120;2022-07-18T04:25:39;98714.88;;;23.87;41.54
17635;BME280;8936;49.010;12.120;2022-07-18T04:28:07;98714.81;;;24.25;41.30
17635;BME280;8936;49.010;12.120;2022-07-18T04:30:35;98714.09;;;24.16;41.28
17635;BME280;8936;49.010;12.120;2022-07-18T04:33:02;98720.69;;;24.15;41.45
17635;BME280;8936;49.010;12.120;2022-07-18T04:35:29;98712.41;;;24.24;41.17
17635;BME280;8936;49.010;12.120;2022-07-18T04:37:56;98708.44;;;24.21;41.28
17635;BME280;8936;49.010;12.120;2022-07-18T04:40:22;98703.47;;;23.94;41.71
17635;BME280;8936;49.010;12.120;2022-07-18T04:42:49;98721.22;;;23.79;41.66
17635;BME280;8936;49.010;12.120;2022-07-18T04:45:15;98715.38;;;23.60;41.97
17635;BME280;8936;49.010;12.120;2022-07-18T04:47:46;98718.47;;;22.95;43.03
17635;BME280;8936;49.010;12.120;2022-07-18T04:50:12;98716.09;;;23.31;42.68
17635;BME280;8936;49.010;12.120;2022-07-18T04:52:39;98698.63;;;23.70;42.02
17635;BME280;8936;49.010;12.120;2022-07-18T04:55:06;98713.00;;;23.50;42.15
17635;BME280;8936;49.010;12.120;2022-07-18T04:57:33;98712.72;;;23.34;42.41
17635;BME280;8936;49.010;12.120;2022-07-18T05:00:00;98709.00;;;23.47;42.06
17635;BME280;8936;49.010;12.120;2022-07-18T05:02:26;98696.91;;;23.86;41.72
17635;BME280;8936;49.010;12.120;2022-07-18T05:04:54;98703.88;;;24.04;41.53
17635;BME280;8936;49.010;12.120;2022-07-18T05:07:20;98703.63;;;24.18;41.28
17635;BME280;8936;49.010;12.120;2022-07-18T05:09:47;98711.97;;;24.22;41.22
17635;BME280;8936;49.010;12.120;2022-07-18T05:12:13;98702.78;;;24.26;41.27
17635;BME280;8936;49.010;12.120;2022-07-18T05:14:39;98704.84;;;24.29;41.01
17635;BME280;8936;49.010;12.120;2022-07-18T05:17:06;98708.97;;;24.35;40.90
17635;BME280;8936;49.010;12.120;2022-07-18T05:19:32;98720.25;;;23.75;41.81
17635;BME280;8936;49.010;12.120;2022-07-18T05:22:00;98721.53;;;23.31;42.47
17635;BME280;8936;49.010;12.120;2022-07-18T05:24:26;98717.75;;;23.24;42.72
17635;BME280;8936;49.010;12.120;2022-07-18T05:26:52;98710.53;;;23.19;42.69
17635;BME280;8936;49.010;12.120;2022-07-18T05:29:19;98712.94;;;23.21;43.09
17635;BME280;8936;49.010;12.120;2022-07-18T05:31:45;98702.69;;;23.64;42.21
17635;BME280;8936;49.010;12.120;2022-07-18T05:34:11;98703.03;;;23.54;42.23
17635;BME280;8936;49.010;12.120;2022-07-18T05:36:38;98710.13;;;23.46;42.54
17635;BME280;8936;49.010;12.120;2022-07-18T05:39:06;98711.88;;;23.51;42.72
17635;BME280;8936;49.010;12.120;2022-07-18T05:41:34;98698.53;;;23.87;42.07
17635;BME280;8936;49.010;12.120;2022-07-18T05:44:00;98698.06;;;24.06;42.17
17635;BME280;8936;49.010;12.120;2022-07-18T05:46:27;98700.97;;;24.30;41.46
17635;BME280;8936;49.010;12.120;2022-07-18T05:48:53;98706.53;;;24.54;41.17
17635;BME280;8936;49.010;12.120;2022-07-18T05:51:20;98694.13;;;24.78;40.92
17635;BME280;8936;49.010;12.120;2022-07-18T05:53:47;98700.59;;;24.94;40.86
17635;BME280;8936;49.010;12.120;2022-07-18T05:56:15;98696.09;;;25.22;40.71
17635;BME280;8936;49.010;12.120;2022-07-18T05:58:41;98695.53;;;25.41;40.46
17635;BME280;8936;49.010;12.120;2022-07-18T06:01:08;98698.81;;;25.22;41.02
17635;BME280;8936;49.010;12.120;2022-07-18T06:03:34;98699.41;;;25.40;40.95
17635;BME280;8936;49.010;12.120;2022-07-18T06:06:00;98693.72;;;25.57;40.76
17635;BME280;8936;49.010;12.120;2022-07-18T06:08:27;98701.13;;;25.56;40.77
17635;BME280;8936;49.010;12.120;2022-07-18T06:10:53;98701.47;;;25.79;40.87
17635;BME280;8936;49.010;12.120;2022-07-18T06:13:21;98701.13;;;25.56;41.38
17635;BME280;8936;49.010;12.120;2022-07-18T06:15:47;98704.75;;;25.36;41.79
17635;BME280;8936;49.010;12.120;2022-07-18T06:18:13;98701.84;;;25.65;41.34
17635;BME280;8936;49.010;12.120;2022-07-18T06:20:40;98702.69;;;25.94;41.11
17635;BME280;8936;49.010;12.120;2022-07-18T06:23:06;98701.91;;;26.17;40.83
17635;BME280;8936;49.010;12.120;2022-07-18T06:25:32;98700.41;;;26.20;40.92
17635;BME280;8936;49.010;12.120;2022-07-18T06:27:59;98700.81;;;26.34;40.85
17635;BME280;8936;49.010;12.120;2022-07-18T06:30:26;98692.41;;;26.27;41.08
17635;BME280;8936;49.010;12.120;2022-07-18T06:32:53;98702.69;;;25.45;42.01
17635;BME280;8936;49.010;12.120;2022-07-18T06:35:19;98709.41;;;25.48;42.34
17635;BME280;8936;49.010;12.120;2022-07-18T06:37:45;98703.66;;;25.73;42.29
17635;BME280;8936;49.010;12.120;2022-07-18T06:40:12;98695.16;;;26.15;41.64
17635;BME280;8936;49.010;12.120;2022-07-18T06:42:39;98691.75;;;26.18;41.43
17635;BME280;8936;49.010;12.120;2022-07-18T06:45:05;98702.72;;;25.69;42.15
17635;BME280;8936;49.010;12.120;2022-07-18T06:47:33;98703.66;;;25.49;42.45
17635;BME280;8936;49.010;12.120;2022-07-18T06:50:00;98698.63;;;25.63;42.50
17635;BME280;8936;49.010;12.120;2022-07-18T06:52:27;98697.50;;;25.76;42.56
17635;BME280;8936;49.010;12.120;2022-07-18T06:54:53;98700.44;;;25.96;42.47
17635;BME280;8936;49.010;12.120;2022-07-18T06:57:19;98689.25;;;25.89;42.52
17635;BME280;8936;49.010;12.120;2022-07-18T06:59:46;98698.06;;;25.58;42.19
17635;BME280;8936;49.010;12.120;2022-07-18T07:02:12;98690.09;;;25.65;42.34
17635;BME280;8936;49.010;12.120;2022-07-18T07:04:40;98690.28;;;25.72;42.45
17635;BME280;8936;49.010;12.120;2022-07-18T07:07:06;98705.25;;;25.87;42.50
17635;BME280;8936;49.010;12.120;2022-07-18T07:09:32;98699.28;;;25.85;42.68
17635;BME280;8936;49.010;12.120;2022-07-18T07:11:59;98693.72;;;25.81;42.83
17635;BME280;8936;49.010;12.120;2022-07-18T07:14:25;98693.13;;;25.27;43.55
17635;BME280;8936;49.010;12.120;2022-07-18T07:16:51;98693.81;;;25.24;43.62
17635;BME280;8936;49.010;12.120;2022-07-18T07:19:18;98690.94;;;25.33;43.76
17635;BME280;8936;49.010;12.120;2022-07-18T07:21:45;98692.91;;;25.56;43.29
17635;BME280;8936;49.010;12.120;2022-07-18T07:24:12;98690.75;;;25.38;43.71
17635;BME280;8936;49.010;12.120;2022-07-18T07:26:38;98689.63;;;25.63;43.70
17635;BME280;8936;49.010;12.120;2022-07-18T07:29:04;98696.28;;;25.17;44.42
17635;BME280;8936;49.010;12.120;2022-07-18T07:31:31;98690.72;;;24.81;45.03
17635;BME280;8936;49.010;12.120;2022-07-18T07:33:57;98693.09;;;24.49;45.36
17635;BME280;8936;49.010;12.120;2022-07-18T07:36:24;98696.41;;;24.55;45.40
17635;BME280;8936;49.010;12.120;2022-07-18T07:38:51;98684.31;;;24.77;45.16
17635;BME280;8936;49.010;12.120;2022-07-18T07:41:18;98679.75;;;24.68;45.13
17635;BME280;8936;49.010;12.120;2022-07-18T07:43:44;98696.06;;;24.44;45.64
17635;BME280;8936;49.010;12.120;2022-07-18T07:46:10;98690.00;;;24.71;45.30
17635;BME280;8936;49.010;12.120;2022-07-18T07:48:37;98701.22;;;24.58;45.57
17635;BME280;8936;49.010;12.120;2022-07-18T07:51:03;98693.81;;;24.58;45.59
17635;BME280;8936;49.010;12.120;2022-07-18T07:53:29;98695.56;;;24.96;45.33
17635;BME280;8936;49.010;12.120;2022-07-18T07:55:57;98688.56;;;25.19;45.29
17635;BME280;8936;49.010;12.120;2022-07-18T07:58:24;98681.13;;;25.07;45.44
17635;BME280;8936;49.010;12.120;2022-07-18T08:00:50;98681.19;;;24.87;45.91
17635;BME280;8936;49.010;12.120;2022-07-18T08:03:16;98674.41;;;25.17;45.59
17635;BME280;8936;49.010;12.120;2022-07-18T08:05:44;98670.19;;;25.19;45.29
17635;BME280;8936;49.010;12.120;2022-07-18T08:08:10;98678.25;;;24.92;45.48
17635;BME280;8936;49.010;12.120;2022-07-18T08:10:37;98674.47;;;24.84;45.92
17635;BME280;8936;49.010;12.120;2022-07-18T08:13:04;98665.28;;;25.01;45.85
17635;BME280;8936;49.010;12.120;2022-07-18T08:15:31;98670.69;;;25.82;44.82
17635;BME280;8936;49.010;12.120;2022-07-18T08:17:57;98669.88;;;25.82;44.77
17635;BME280;8936;49.010;12.120;2022-07-18T08:20:24;98669.44;;;25.80;44.55
17635;BME280;8936;49.010;12.120;2022-07-18T08:22:57;98670.59;;;25.54;44.54
17635;BME280;8936;49.010;12.120;2022-07-18T08:25:24;98669.44;;;25.43;45.28
17635;BME280;8936;49.010;12.120;2022-07-18T08:27:51;98671.63;;;25.74;45.06
17635;BME280;8936;49.010;12.120;2022-07-18T08:30:19;98674.69;;;25.72;44.88
17635;BME280;8936;49.010;12.120;2022-07-18T08:32:45;98675.47;;;25.73;44.45
17635;BME280;8936;49.010;12.120;2022-07-18T08:35:12;98669.75;;;25.78;44.50
17635;BME280;8936;49.010;12.120;2022-07-18T08:37:38;98667.94;;;26.62;43.81
17635;BME280;8936;49.010;12.120;2022-07-18T08:40:05;98665.22;;;26.34;43.38
17635;BME280;8936;49.010;12.120;2022-07-18T08:42:32;98657.75;;;26.19;43.87
17635;BME280;8936;49.010;12.120;2022-07-18T08:44:58;98656.00;;;26.54;43.64
17635;BME280;8936;49.010;12.120;2022-07-18T08:47:27;98661.38;;;26.78;43.19
17635;BME280;8936;49.010;12.120;2022-07-18T08:49:54;98656.13;;;26.58;43.61
17635;BME280;8936;49.010;12.120;2022-07-18T08:52:21;98664.03;;;26.47;43.87
17635;BME280;8936;49.010;12.120;2022-07-18T08:54:47;98658.84;;;26.30;43.91
17635;BME280;8936;49.010;12.120;2022-07-18T08:57:14;98668.47;;;26.24;43.89
17635;BME280;8936;49.010;12.120;2022-07-18T08:59:41;98664.97;;;26.39;43.90
17635;BME280;8936;49.010;12.120;2022-07-18T09:02:07;98661.16;;;26.71;43.33
17635;BME280;8936;49.010;12.120;2022-07-18T09:04:36;98659.44;;;26.51;43.76
17635;BME280;8936;49.010;12.120;2022-07-18T09:07:02;98653.47;;;27.05;43.38
17635;BME280;8936;49.010;12.120;2022-07-18T09:09:29;98653.13;;;26.78;43.46
17635;BME280;8936;49.010;12.120;2022-07-18T09:11:56;98652.75;;;27.23;43.10
17635;BME280;8936;49.010;12.120;2022-07-18T09:14:31;98659.59;;;27.14;42.90
17635;BME280;8936;49.010;12.120;2022-07-18T09:17:02;98653.72;;;27.62;42.74
17635;BME280;8936;49.010;12.120;2022-07-18T09:19:29;98658.34;;;27.58;42.26
17635;BME280;8936;49.010;12.120;2022-07-18T09:22:03;98643.81;;;27.93;42.32
17635;BME280;8936;49.010;12.120;2022-07-18T09:24:43;98648.84;;;27.71;42.25
17635;BME280;8936;49.010;12.120;2022-07-18T09:27:22;98639.44;;;28.07;41.95
17635;BME280;8936;49.010;12.120;2022-07-18T09:29:48;98635.47;;;28.62;41.17
17635;BME280;8936;49.010;12.120;2022-07-18T09:32:21;98633.59;;;28.66;41.28
17635;BME280;8936;49.010;12.120;2022-07-18T09:34:47;98638.16;;;28.39;40.73
17635;BME280;8936;49.010;12.120;2022-07-18T09:37:15;98634.78;;;28.27;40.95
17635;BME280;8936;49.010;12.120;2022-07-18T09:39:41;98635.06;;;28.22;40.87
17635;BME280;8936;49.010;12.120;2022-07-18T09:42:14;98650.81;;;28.06;40.30
17635;BME280;8936;49.010;12.120;2022-07-18T09:44:41;98640.53;;;27.68;39.61
17635;BME280;8936;49.010;12.120;2022-07-18T09:47:07;98645.13;;;27.64;39.80
17635;BME280;8936;49.010;12.120;2022-07-18T09:49:34;98638.38;;;27.77;40.58
17635;BME280;8936;49.010;12.120;2022-07-18T09:52:03;98641.34;;;27.53;40.49
17635;BME280;8936;49.010;12.120;2022-07-18T09:54:36;98639.13;;;27.58;40.42
17635;BME280;8936;49.010;12.120;2022-07-18T09:57:02;98640.94;;;27.70;39.79
17635;BME280;8936;49.010;12.120;2022-07-18T09:59:29;98634.69;;;27.69;40.38
17635;BME280;8936;49.010;12.120;2022-07-18T10:01:55;98633.47;;;27.86;40.31
17635;BME280;8936;49.010;12.120;2022-07-18T10:04:22;98629.75;;;28.71;40.46
17635;BME280;8936;49.010;12.120;2022-07-18T10:06:48;98629.72;;;28.90;40.04
17635;BME280;8936;49.010;12.120;2022-07-18T10:09:15;98618.19;;;29.26;39.53
17635;BME280;8936;49.010;12.120;2022-07-18T10:11:43;98626.22;;;29.38;38.88
17635;BME280;8936;49.010;12.120;2022-07-18T10:14:09;98617.56;;;29.14;38.88
17635;BME280;8936;49.010;12.120;2022-07-18T10:16:36;98614.75;;;29.10;38.75
17635;BME280;8936;49.010;12.120;2022-07-18T10:19:04;98632.53;;;28.93;38.10
17635;BME280;8936;49.010;12.120;2022-07-18T10:21:30;98626.47;;;28.84;38.63
17635;BME280;8936;49.010;12.120;2022-07-18T10:23:57;98630.78;;;28.44;38.24
17635;BME280;8936;49.010;12.120;2022-07-18T10:26:27;98627.47;;;28.34;38.43
17635;BME280;8936;49.010;12.120;2022-07-18T10:29:11;98617.69;;;28.56;38.29
17635;BME280;8936;49.010;12.120;2022-07-18T10:31:40;98621.66;;;29.01;37.54
17635;BME280;8936;49.010;12.120;2022-07-18T10:34:11;98619.16;;;28.92;37.43
17635;BME280;8936;49.010;12.120;2022-07-18T10:36:39;98616.94;;;28.78;37.27
17635;BME280;8936;49.010;12.120;2022-07-18T10:39:06;98615.28;;;29.19;37.33
17635;BME280;8936;49.010;12.120;2022-07-18T10:41:32;98605.13;;;29.46;38.00
17635;BME280;8936;49.010;12.120;2022-07-18T10:43:59;98612.94;;;29.44;36.40
17635;BME280;8936;49.010;12.120;2022-07-18T10:46:27;98597.81;;;29.08;35.70
17635;BME280;8936;49.010;12.120;2022-07-18T10:49:13;98604.03;;;29.28;36.85
17635;BME280;8936;49.010;12.120;2022-07-18T10:51:39;98603.31;;;29.31;36.60
17635;BME280;8936;49.010;12.120;2022-07-18T10:54:10;98598.81;;;29.45;35.66
17635;BME280;8936;49.010;12.120;2022-07-18T10:59:22;98595.38;;;29.52;36.61
17635;BME280;8936;49.010;12.120;2022-07-18T11:01:51;98594.13;;;29.46;36.04
17635;BME280;8936;49.010;12.120;2022-07-18T11:04:21;98588.56;;;29.42;36.44
17635;BME280;8936;49.010;12.120;2022-07-18T11:06:52;98577.69;;;29.79;37.04
17635;BME280;8936;49.010;12.120;2022-07-18T11:12:19;98576.47;;;30.07;37.16
17635;BME280;8936;49.010;12.120;2022-07-18T11:14:59;98569.63;;;29.93;36.44
17635;BME280;8936;49.010;12.120;2022-07-18T11:20:24;98579.25;;;29.80;35.25
17635;BME280;8936;49.010;12.120;2022-07-18T11:22:50;98574.91;;;29.79;35.67
17635;BME280;8936;49.010;12.120;2022-07-18T11:25:17;98568.81;;;29.93;35.89
17635;BME280;8936;49.010;12.120;2022-07-18T11:27:43;98571.31;;;30.02;35.79
17635;BME280;8936;49.010;12.120;2022-07-18T11:30:10;98568.97;;;30.04;36.40
17635;BME280;8936;49.010;12.120;2022-07-18T11:32:41;98568.97;;;30.04;36.11
17635;BME280;8936;49.010;12.120;2022-07-18T11:35:08;98573.13;;;30.24;36.29
17635;BME280;8936;49.010;12.120;2022-07-18T11:37:36;98573.28;;;30.38;35.53
17635;BME280;8936;49.010;12.120;2022-07-18T11:40:06;98570.78;;;30.26;34.49
17635;BME280;8936;49.010;12.120;2022-07-18T11:42:36;98555.63;;;30.09;34.46
17635;BME280;8936;49.010;12.120;2022-07-18T11:45:03;98555.44;;;29.91;34.63
17635;BME280;8936;49.010;12.120;2022-07-18T11:47:30;98555.47;;;29.95;34.51
17635;BME280;8936;49.010;12.120;2022-07-18T11:49:56;98554.34;;;29.99;35.45
17635;BME280;8936;49.010;12.120;2022-07-18T11:52:23;98551.81;;;30.21;35.77
17635;BME280;8936;49.010;12.120;2022-07-18T11:54:51;98547.56;;;30.27;34.82
17635;BME280;8936;49.010;12.120;2022-07-18T11:57:25;98542.25;;;30.41;34.70
17635;BME280;8936;49.010;12.120;2022-07-18T11:59:52;98549.72;;;30.40;34.43
17635;BME280;8936;49.010;12.120;2022-07-18T12:02:18;98544.09;;;30.33;35.04
17635;BME280;8936;49.010;12.120;2022-07-18T12:04:45;98544.53;;;30.35;35.04
17635;BME280;8936;49.010;12.120;2022-07-18T12:07:15;98538.63;;;30.37;34.93
17635;BME280;8936;49.010;12.120;2022-07-18T12:09:41;98543.72;;;30.35;35.06
17635;BME280;8936;49.010;12.120;2022-07-18T12:12:10;98537.66;;;30.19;33.92
17635;BME280;8936;49.010;12.120;2022-07-18T12:14:37;98536.09;;;30.21;35.48
17635;BME280;8936;49.010;12.120;2022-07-18T12:17:04;98531.06;;;30.30;34.32
17635;BME280;8936;49.010;12.120;2022-07-18T12:19:34;98524.72;;;30.23;34.60
17635;BME280;8936;49.010;12.120;2022-07-18T12:22:04;98533.47;;;30.32;34.61
17635;BME280;8936;49.010;12.120;2022-07-18T12:24:32;98534.31;;;30.36;34.68
17635;BME280;8936;49.010;12.120;2022-07-18T12:32:30;98521.50;;;30.17;34.17
17635;BME280;8936;49.010;12.120;2022-07-18T12:35:03;98530.88;;;30.13;34.55
17635;BME280;8936;49.010;12.120;2022-07-18T12:37:29;98519.63;;;30.28;34.04
17635;BME280;8936;49.010;12.120;2022-07-18T12:39:56;98521.19;;;30.26;34.22
17635;BME280;8936;49.010;12.120;2022-07-18T12:42:27;98518.63;;;30.43;33.75
17635;BME280;8936;49.010;12.120;2022-07-18T12:44:53;98514.00;;;30.51;33.87
17635;BME280;8936;49.010;12.120;2022-07-18T12:47:19;98514.72;;;30.44;34.35
17635;BME280;8936;49.010;12.120;2022-07-18T12:49:47;98520.75;;;30.57;33.52
17635;BME280;8936;49.010;12.120;2022-07-18T12:52:13;98514.41;;;30.53;34.13
17635;BME280;8936;49.010;12.120;2022-07-18T12:54:40;98506.25;;;30.64;33.82
17635;BME280;8936;49.010;12.120;2022-07-18T12:57:06;98506.50;;;30.48;34.05
17635;BME280;8936;49.010;12.120;2022-07-18T12:59:32;98504.09;;;30.46;33.95
17635;BME280;8936;49.010;12.120;2022-07-18T13:01:59;98508.09;;;30.52;34.20
17635;BME280;8936;49.010;12.120;2022-07-18T13:04:25;98506.56;;;30.59;33.89
17635;BME280;8936;49.010;12.120;2022-07-18T13:06:53;98505.69;;;30.47;33.47
17635;BME280;8936;49.010;12.120;2022-07-18T13:09:19;98508.88;;;30.53;33.37
17635;BME280;8936;49.010;12.120;2022-07-18T13:11:47;98508.78;;;30.42;33.21
17635;BME280;8936;49.010;12.120;2022-07-18T13:14:13;98498.81;;;30.31;33.32